Flight Track Log - Related Links

Times and Time Zones

All times are in EDT time to prevent confusion due to time zone crossing. See the UPS1121 flight status page for this flight to view local times or setup timezone preferences in your user account.

Time Position Orientation Groundspeed Altitude Reporting Facility
EDT Latitude Longitude Course Direction KTS MPH feet Rate Location/Type
Mon 08:37:30 PM 42.7361 -73.8083 148° Southeast 146 168 1,400  Level Boston Center
Mon 08:38:19 PM 42.7092 -73.7850 148° Southeast 160 184 2,800 1,975 Climbing Boston Center
Mon 08:38:49 PM 42.6908 -73.7564 131° Southeast 208 239 4,000 2,733 Climbing Boston Center
Mon 08:39:49 PM 42.6458 -73.6878 132° Southeast 231 266 6,900 3,150 Climbing Boston Center
Mon 08:40:49 PM 42.5986 -73.6192 133° Southeast 265 305 10,300 3,000 Climbing Boston Center
Mon 08:41:11 PM 42.5697 -73.5819 136° Southeast 294 338 11,000 700 Climbing Boston Center
Mon 08:41:49 PM 42.5308 -73.5219 131° Southeast 305 351 11,000  Level Boston Center
Mon 08:42:24 PM 42.4894 -73.4678 136° Southeast 344 396 11,000 -100 Level Boston Center
Mon 08:42:49 PM 42.4711 -73.4364 128° Southeast 338 389 10,900  Descending Boston Center
Mon 08:43:24 PM 42.4217 -73.3711 136° Southeast 346 398 11,000 100 Climbing Boston Center
Mon 08:43:49 PM 42.3989 -73.3314 128° Southeast 344 396 11,000  Level Boston Center
Mon 08:44:25 PM 42.3683 -73.2661 122° Southeast 347 399 11,000  Level Boston Center
Mon 08:44:49 PM 42.3581 -73.2294 111° Southeast 344 396 11,000  Level Boston Center
Mon 08:45:20 PM 42.3314 -73.1561 116° Southeast 351 404 11,000 -500 Level Boston Center
Mon 08:45:49 PM 42.3150 -73.0969 111° Southeast 344 396 10,500 -700 Descending Boston Center
Mon 08:46:20 PM 42.2947 -73.0436 117° Southeast 317 365 10,300 -1,256 Descending Boston Center
Mon 08:47:15 PM 42.2658 -72.9564 114° Southeast 287 330 8,700 -2,139 Descending Boston Center
Mon 08:48:15 PM 42.2328 -72.8606 115° Southeast 277 319 6,200 -2,033 Descending Boston Center
Mon 08:49:16 PM 42.2019 -72.7681 114° Southeast 271 312 4,600 -1,138 Descending Boston Center
Mon 08:50:11 PM 42.1750 -72.6894 115° Southeast 254 292 4,000 -298 Descending Boston Center
Mon 08:51:17 PM 42.1397 -72.6053 119° Southeast 226 260 4,000 -347 Level Boston Center
Mon 08:52:12 PM 42.1022 -72.5661 142° Southeast 174 200 3,300 -672 Descending Boston Center
Mon 08:53:13 PM 42.0628 -72.5686 183° South 127 146 2,700 -626 Descending Boston Center
Mon 08:54:07 PM 42.0356 -72.5769 193° South 118 136 2,100 -417 Descending Boston Center
Mon 08:55:08 PM 42.0086 -72.5967 209° Southwest 114 131 1,900 -397 Descending Boston Center
Mon 08:56:08 PM 41.9856 -72.6272 225° Southwest 113 130 1,300 -626 Descending Boston Center
Mon 08:57:03 PM 41.9647 -72.6550 225° Southwest 113 130 700 -655 Descending Boston Center

Login

Don't have an account? Register now (free) for customized features, flight alerts, and more!